Time;durP1;ratioP1;P1;durP2;ratioP2;P2;SDS_P1;SDS_P2;PMS_P1;PMS_P2;Temp;Humidity;BMP_temperature;BMP_pressure;BME280_temperature;BME280_humidity;BME280_pressure;Samples;Min_cycle;Max_cycle;Signal;HPM_P1;HPM_P2
2021/08/13 00:02:15;;;;;;;8.07;3.30;;;;;;;;;;4954035;29;20114;-87
2021/08/13 00:04:41;;;;;;;11.65;3.63;;;;;;;;;;4953954;29;20034;-87
2021/08/13 00:07:08;;;;;;;7.65;3.78;;;;;;;;;;4953847;29;20048;-86
2021/08/13 00:09:34;;;;;;;6.95;3.03;;;;;;;;;;4953848;29;20075;-86
2021/08/13 00:12:00;;;;;;;5.85;2.85;;;;;;;;;;4953927;29;20125;-88
2021/08/13 00:14:26;;;;;;;7.22;3.00;;;;;;;;;;4955121;29;20030;-88
2021/08/13 00:16:52;;;;;;;5.35;2.90;;;;;;;;;;4953678;29;20047;-88
2021/08/13 00:19:18;;;;;;;5.50;3.17;;;;;;;;;;4953773;29;20023;-86
2021/08/13 00:21:44;;;;;;;7.82;2.88;;;;;;;;;;4953919;29;20054;-89
2021/08/13 00:24:11;;;;;;;5.00;2.70;;;;;;;;;;4955044;29;20461;-87
2021/08/13 00:26:37;;;;;;;6.90;3.00;;;;;;;;;;4953974;29;20023;-87
2021/08/13 00:29:03;;;;;;;4.95;3.05;;;;;;;;;;4953702;29;20035;-87
2021/08/13 00:31:29;;;;;;;22.42;2.95;;;;;;;;;;4953606;29;20027;-84
2021/08/13 00:33:55;;;;;;;5.10;2.90;;;;;;;;;;4953646;29;20059;-88
2021/08/13 00:36:21;;;;;;;4.78;2.60;;;;;;;;;;4954812;29;20066;-88
2021/08/13 00:38:48;;;;;;;4.70;2.92;;;;;;;;;;4953821;29;20134;-87
2021/08/13 00:41:14;;;;;;;5.40;2.75;;;;;;;;;;4953876;29;20020;-86
2021/08/13 00:43:43;;;;;;;4.40;2.88;;;;;;;;;;4953715;29;20062;-88
2021/08/13 00:46:10;;;;;;;6.43;2.97;;;;;;;;;;4953602;29;20032;-87
2021/08/13 00:48:38;;;;;;;5.35;3.45;;;;;;;;;;4953598;28;20030;-88
2021/08/13 00:51:04;;;;;;;7.00;2.78;;;;;;;;;;4957680;28;20027;-87
2021/08/13 00:53:30;;;;;;;5.53;2.90;;;;;;;;;;4957126;29;20091;-84
2021/08/13 00:55:57;;;;;;;7.95;3.03;;;;;;;;;;4958105;29;20035;-86
2021/08/13 00:58:23;;;;;;;5.25;2.67;;;;;;;;;;4956867;29;20408;-88
2021/08/13 01:00:51;;;;;;;4.43;2.92;;;;;;;;;;4956762;29;20027;-87
2021/08/13 01:03:17;;;;;;;4.68;2.80;;;;;;;;;;4958026;28;20377;-88
2021/08/13 01:05:43;;;;;;;5.68;3.28;;;;;;;;;;4956714;29;20456;-88
2021/08/13 01:08:09;;;;;;;5.40;2.83;;;;;;;;;;4956621;29;20037;-87
2021/08/13 01:10:41;;;;;;;6.13;3.35;;;;;;;;;;4956945;29;20031;-87
2021/08/13 01:13:15;;;;;;;6.78;3.25;;;;;;;;;;4956664;29;20031;-87
2021/08/13 01:15:42;;;;;;;5.32;3.08;;;;;;;;;;4956575;29;20436;-87
2021/08/13 01:18:13;;;;;;;7.57;2.92;;;;;;;;;;4958148;29;20086;-87
2021/08/13 01:20:54;;;;;;;5.35;3.20;;;;;;;;;;4956718;29;20023;-87
2021/08/13 01:23:39;;;;;;;5.38;2.95;;;;;;;;;;4956440;29;20027;-87
2021/08/13 01:26:06;;;;;;;6.30;2.78;;;;;;;;;;4956375;29;20122;-85
2021/08/13 01:28:48;;;;;;;5.88;3.35;;;;;;;;;;4958153;28;20061;-86
2021/08/13 01:31:22;;;;;;;7.65;3.20;;;;;;;;;;4956211;29;20035;-86
2021/08/13 01:33:49;;;;;;;5.93;3.33;;;;;;;;;;4956292;29;20075;-87
2021/08/13 01:36:16;;;;;;;7.72;3.03;;;;;;;;;;4956027;29;20027;-86
2021/08/13 01:38:42;;;;;;;6.30;3.38;;;;;;;;;;4956847;29;20085;-87
2021/08/13 01:41:09;;;;;;;6.85;3.33;;;;;;;;;;4956097;29;20527;-87
2021/08/13 01:43:37;;;;;;;5.57;3.10;;;;;;;;;;4956010;29;20050;-83
2021/08/13 01:46:04;;;;;;;4.88;2.90;;;;;;;;;;4957201;29;20031;-87
2021/08/13 01:48:31;;;;;;;5.47;2.92;;;;;;;;;;4955916;29;20123;-88
2021/08/13 01:50:57;;;;;;;5.18;3.00;;;;;;;;;;4955990;29;20023;-87
2021/08/13 01:53:24;;;;;;;6.03;3.30;;;;;;;;;;4955792;29;20460;-84
2021/08/13 01:55:53;;;;;;;17.38;3.60;;;;;;;;;;4955819;29;20055;-87
2021/08/13 01:58:20;;;;;;;8.38;3.40;;;;;;;;;;4957122;29;20038;-86
2021/08/13 02:00:46;;;;;;;7.30;2.85;;;;;;;;;;4955581;28;20429;-84
2021/08/13 02:03:13;;;;;;;12.50;3.10;;;;;;;;;;4957090;29;20034;-86
2021/08/13 02:05:40;;;;;;;6.05;3.17;;;;;;;;;;4956925;29;20039;-88
2021/08/13 02:08:07;;;;;;;5.95;2.80;;;;;;;;;;4955705;29;20122;-87
2021/08/13 02:10:35;;;;;;;6.03;3.50;;;;;;;;;;4955551;29;20051;-88
2021/08/13 02:13:02;;;;;;;5.70;3.17;;;;;;;;;;4955539;29;20031;-87
2021/08/13 02:15:29;;;;;;;9.13;3.28;;;;;;;;;;4955489;29;20078;-87
2021/08/13 02:18:15;;;;;;;7.60;3.60;;;;;;;;;;4955306;29;20046;-87
2021/08/13 02:20:42;;;;;;;5.25;3.00;;;;;;;;;;4956478;29;20535;-88
2021/08/13 02:23:09;;;;;;;5.35;3.15;;;;;;;;;;4955297;29;20038;-87
2021/08/13 02:25:35;;;;;;;5.95;3.05;;;;;;;;;;4955251;29;20373;-84
2021/08/13 02:28:01;;;;;;;8.60;3.50;;;;;;;;;;4955217;29;20042;-88
2021/08/13 02:30:27;;;;;;;5.38;3.47;;;;;;;;;;4955125;29;20058;-88
2021/08/13 02:32:54;;;;;;;4.88;2.97;;;;;;;;;;4955055;29;20027;-88
2021/08/13 02:35:20;;;;;;;7.60;3.10;;;;;;;;;;4955155;29;20122;-88
2021/08/13 02:37:53;;;;;;;8.40;3.22;;;;;;;;;;4956664;29;20122;-85
2021/08/13 02:40:30;;;;;;;5.57;3.15;;;;;;;;;;4955190;29;20030;-87
2021/08/13 02:43:05;;;;;;;7.43;3.42;;;;;;;;;;4954918;29;20503;-84
2021/08/13 02:45:34;;;;;;;7.40;3.40;;;;;;;;;;4956141;29;20409;-87
2021/08/13 02:48:01;;;;;;;5.70;3.25;;;;;;;;;;4955032;29;20031;-87
2021/08/13 02:50:28;;;;;;;7.97;3.22;;;;;;;;;;4956597;29;20031;-88
2021/08/13 02:53:05;;;;;;;5.43;3.38;;;;;;;;;;4954687;29;20059;-84
2021/08/13 02:55:49;;;;;;;5.70;3.40;;;;;;;;;;4956003;29;20090;-87
2021/08/13 02:58:17;;;;;;;6.60;3.80;;;;;;;;;;4954657;29;20058;-84
2021/08/13 03:00:43;;;;;;;6.72;3.28;;;;;;;;;;4954596;29;20098;-87
2021/08/13 03:03:11;;;;;;;6.93;3.42;;;;;;;;;;4955768;29;20034;-88
2021/08/13 03:05:40;;;;;;;8.55;3.70;;;;;;;;;;4954618;29;20075;-89
2021/08/13 03:08:06;;;;;;;4.75;2.90;;;;;;;;;;4954503;29;20023;-88
2021/08/13 03:10:32;;;;;;;6.53;3.10;;;;;;;;;;4954573;29;20392;-89
2021/08/13 03:12:59;;;;;;;5.25;3.45;;;;;;;;;;4953928;28;20024;-85
2021/08/13 03:15:26;;;;;;;7.47;3.10;;;;;;;;;;4954478;29;20031;-89
2021/08/13 03:17:53;;;;;;;9.73;3.50;;;;;;;;;;4954364;29;20046;-86
2021/08/13 03:20:20;;;;;;;5.82;3.28;;;;;;;;;;4954360;29;20437;-87
2021/08/13 03:22:47;;;;;;;6.43;3.03;;;;;;;;;;4955517;29;20031;-86
2021/08/13 03:25:13;;;;;;;4.97;2.88;;;;;;;;;;4954295;29;20034;-88
2021/08/13 03:27:42;;;;;;;7.35;3.65;;;;;;;;;;4954215;29;20035;-85
2021/08/13 03:30:09;;;;;;;5.18;3.28;;;;;;;;;;4954234;29;20027;-86
2021/08/13 03:32:36;;;;;;;13.43;3.42;;;;;;;;;;4954227;29;20041;-85
2021/08/13 03:35:02;;;;;;;4.90;3.05;;;;;;;;;;4954270;29;20027;-88
2021/08/13 03:37:30;;;;;;;8.32;3.45;;;;;;;;;;4954114;29;20408;-89
2021/08/13 03:39:57;;;;;;;10.15;3.17;;;;;;;;;;4954069;29;20047;-88
2021/08/13 03:42:23;;;;;;;7.38;3.25;;;;;;;;;;4954062;29;20125;-86
2021/08/13 03:44:49;;;;;;;6.78;3.08;;;;;;;;;;4954092;29;20034;-89
2021/08/13 03:47:16;;;;;;;6.72;3.28;;;;;;;;;;4954079;29;20042;-89
2021/08/13 03:49:42;;;;;;;4.35;2.90;;;;;;;;;;4954396;29;20019;-86
2021/08/13 03:52:08;;;;;;;4.70;2.90;;;;;;;;;;4953975;28;20146;-89
2021/08/13 03:54:34;;;;;;;5.50;2.95;;;;;;;;;;4953919;29;20081;-88
2021/08/13 03:57:00;;;;;;;8.43;2.92;;;;;;;;;;4953996;29;20039;-84
2021/08/13 03:59:26;;;;;;;5.35;3.03;;;;;;;;;;4955182;29;20027;-88
2021/08/13 04:01:52;;;;;;;6.38;3.38;;;;;;;;;;4954406;29;20058;-87
2021/08/13 04:04:18;;;;;;;9.25;2.80;;;;;;;;;;4953851;29;20034;-88
2021/08/13 04:06:45;;;;;;;8.10;2.95;;;;;;;;;;4955898;29;20083;-84
2021/08/13 04:09:11;;;;;;;7.18;2.90;;;;;;;;;;4953898;29;20039;-88
2021/08/13 04:11:37;;;;;;;5.78;3.10;;;;;;;;;;4953931;29;20023;-88
2021/08/13 04:14:06;;;;;;;5.18;3.20;;;;;;;;;;4953924;29;20110;-84
2021/08/13 04:16:33;;;;;;;4.63;2.78;;;;;;;;;;4953974;29;20035;-88
2021/08/13 04:18:59;;;;;;;5.78;2.85;;;;;;;;;;4953856;29;20050;-85
2021/08/13 04:21:25;;;;;;;7.40;3.17;;;;;;;;;;4953906;29;20122;-85
2021/08/13 04:23:51;;;;;;;8.02;3.08;;;;;;;;;;4953886;28;20029;-88
2021/08/13 04:26:17;;;;;;;7.63;2.97;;;;;;;;;;4957279;29;20467;-87
2021/08/13 04:28:43;;;;;;;4.65;2.67;;;;;;;;;;4957389;29;20027;-88
2021/08/13 04:31:10;;;;;;;5.60;2.92;;;;;;;;;;4957420;29;20119;-86
2021/08/13 04:33:36;;;;;;;6.95;3.03;;;;;;;;;;4957767;29;20042;-86
2021/08/13 04:36:02;;;;;;;7.43;3.00;;;;;;;;;;4957131;29;20031;-86
2021/08/13 04:38:28;;;;;;;4.68;2.78;;;;;;;;;;4958966;29;20400;-85
2021/08/13 04:40:54;;;;;;;5.25;2.80;;;;;;;;;;4957117;29;20020;-87
2021/08/13 04:43:20;;;;;;;7.68;2.80;;;;;;;;;;4957332;29;20468;-86
2021/08/13 04:45:46;;;;;;;6.00;2.92;;;;;;;;;;4956995;29;20381;-86
2021/08/13 04:48:12;;;;;;;6.28;3.15;;;;;;;;;;4958777;29;20511;-85
2021/08/13 04:50:39;;;;;;;9.95;3.17;;;;;;;;;;4956892;29;20035;-85
2021/08/13 04:53:05;;;;;;;4.93;2.80;;;;;;;;;;4956757;28;20051;-85
2021/08/13 04:55:31;;;;;;;5.95;2.90;;;;;;;;;;4956754;29;20027;-85
2021/08/13 04:57:57;;;;;;;6.85;2.95;;;;;;;;;;4956858;29;20109;-85
2021/08/13 05:00:23;;;;;;;4.85;2.65;;;;;;;;;;4958602;29;20030;-85
2021/08/13 05:02:49;;;;;;;7.63;2.75;;;;;;;;;;4956690;29;20496;-85
2021/08/13 05:05:15;;;;;;;5.95;2.67;;;;;;;;;;4956650;29;20396;-85
2021/08/13 05:07:42;;;;;;;6.22;2.33;;;;;;;;;;4956688;29;20032;-89
2021/08/13 05:10:11;;;;;;;6.97;2.70;;;;;;;;;;4956650;29;20023;-89
2021/08/13 05:12:38;;;;;;;5.75;2.78;;;;;;;;;;4956577;29;20477;-87
2021/08/13 05:15:05;;;;;;;6.80;2.35;;;;;;;;;;4956502;29;20529;-84
2021/08/13 05:17:31;;;;;;;4.40;2.40;;;;;;;;;;4956398;29;20035;-84
2021/08/13 05:19:57;;;;;;;4.38;2.17;;;;;;;;;;4957634;29;20034;-87
2021/08/13 05:22:24;;;;;;;4.97;2.35;;;;;;;;;;4956372;29;20027;-83
2021/08/13 05:24:50;;;;;;;4.38;2.20;;;;;;;;;;4957689;29;20026;-87
2021/08/13 05:27:16;;;;;;;5.70;2.25;;;;;;;;;;4956414;29;20046;-86
2021/08/13 05:29:42;;;;;;;4.75;2.60;;;;;;;;;;4959656;29;20039;-86
2021/08/13 05:32:08;;;;;;;3.60;1.75;;;;;;;;;;4955963;29;20027;-90
2021/08/13 05:34:35;;;;;;;7.18;2.55;;;;;;;;;;4955133;29;20027;-86
2021/08/13 05:37:01;;;;;;;5.88;2.65;;;;;;;;;;4955751;28;20047;-87
2021/08/13 05:39:27;;;;;;;6.10;2.50;;;;;;;;;;4956182;29;20114;-87
2021/08/13 05:41:53;;;;;;;7.18;2.67;;;;;;;;;;4955944;29;20381;-88
2021/08/13 05:44:19;;;;;;;4.70;2.33;;;;;;;;;;4956052;29;20030;-88
2021/08/13 05:46:45;;;;;;;3.47;2.08;;;;;;;;;;4955637;29;20118;-88
2021/08/13 05:49:11;;;;;;;3.50;1.80;;;;;;;;;;4955965;29;20023;-88
2021/08/13 05:51:37;;;;;;;3.78;1.95;;;;;;;;;;4955693;29;20489;-88
2021/08/13 05:54:04;;;;;;;5.10;2.13;;;;;;;;;;4955969;29;20023;-88
2021/08/13 05:56:30;;;;;;;5.53;2.47;;;;;;;;;;4955768;29;20081;-88
2021/08/13 05:59:00;;;;;;;4.03;2.10;;;;;;;;;;4955791;29;20031;-84
2021/08/13 06:01:26;;;;;;;4.15;2.17;;;;;;;;;;4957045;28;20074;-87
2021/08/13 06:03:52;;;;;;;3.90;1.90;;;;;;;;;;4955918;29;20538;-86
2021/08/13 06:06:19;;;;;;;4.40;2.10;;;;;;;;;;4955392;29;20384;-86
2021/08/13 06:08:46;;;;;;;3.00;1.77;;;;;;;;;;4957841;28;20023;-86
2021/08/13 06:11:12;;;;;;;8.13;1.83;;;;;;;;;;4955524;29;20122;-87
2021/08/13 06:13:38;;;;;;;5.38;1.80;;;;;;;;;;4955497;29;20042;-87
2021/08/13 06:16:04;;;;;;;5.95;2.00;;;;;;;;;;4955327;29;20043;-87
2021/08/13 06:18:30;;;;;;;4.80;1.73;;;;;;;;;;4955362;29;20037;-87
2021/08/13 06:20:56;;;;;;;5.40;2.20;;;;;;;;;;4956397;29;20468;-86
2021/08/13 06:23:22;;;;;;;4.03;2.05;;;;;;;;;;4954911;29;20455;-88
2021/08/13 06:25:49;;;;;;;4.68;1.92;;;;;;;;;;4955376;29;20058;-86
2021/08/13 06:28:15;;;;;;;3.03;1.77;;;;;;;;;;4956460;29;20055;-87
2021/08/13 06:30:41;;;;;;;7.90;1.65;;;;;;;;;;4954995;29;20084;-85
2021/08/13 06:33:07;;;;;;;6.03;1.92;;;;;;;;;;4956354;29;20046;-87
2021/08/13 06:35:33;;;;;;;3.65;1.77;;;;;;;;;;4955734;29;20073;-88
2021/08/13 06:38:00;;;;;;;3.47;2.05;;;;;;;;;;4955447;29;20039;-86
2021/08/13 06:40:26;;;;;;;3.22;1.73;;;;;;;;;;4956523;29;20054;-86
2021/08/13 06:42:53;;;;;;;3.50;1.92;;;;;;;;;;4956147;28;20105;-86
2021/08/13 06:45:23;;;;;;;2.50;1.50;;;;;;;;;;4954749;29;20075;-86
2021/08/13 06:47:49;;;;;;;9.68;1.70;;;;;;;;;;4954259;28;20030;-86
2021/08/13 06:50:16;;;;;;;2.58;1.55;;;;;;;;;;4954897;29;20027;-87
2021/08/13 06:52:42;;;;;;;3.45;1.83;;;;;;;;;;4954361;28;20055;-86
2021/08/13 06:55:09;;;;;;;5.47;2.03;;;;;;;;;;4955631;29;20027;-86
2021/08/13 06:57:35;;;;;;;3.17;1.95;;;;;;;;;;4954621;29;20039;-84
2021/08/13 07:00:03;;;;;;;3.38;1.80;;;;;;;;;;4955980;29;20027;-86
2021/08/13 07:02:29;;;;;;;7.85;2.00;;;;;;;;;;4954704;29;20027;-86
2021/08/13 07:04:55;;;;;;;2.80;1.65;;;;;;;;;;4956310;29;20027;-86
2021/08/13 07:07:21;;;;;;;12.15;2.17;;;;;;;;;;4954551;29;20027;-87
2021/08/13 07:09:48;;;;;;;10.10;1.77;;;;;;;;;;4954501;29;20024;-87
2021/08/13 07:12:18;;;;;;;5.20;1.80;;;;;;;;;;4954503;29;20027;-87
2021/08/13 07:14:45;;;;;;;4.13;2.10;;;;;;;;;;4954311;29;20020;-86
2021/08/13 07:17:11;;;;;;;3.42;1.80;;;;;;;;;;4955131;29;20039;-89
2021/08/13 07:19:37;;;;;;;5.47;1.80;;;;;;;;;;4954466;29;20030;-85
2021/08/13 07:22:04;;;;;;;4.50;1.95;;;;;;;;;;4955614;29;20031;-86
2021/08/13 07:24:30;;;;;;;3.60;1.90;;;;;;;;;;4954324;29;20031;-87
2021/08/13 07:26:56;;;;;;;5.88;1.70;;;;;;;;;;4954559;29;20108;-86
2021/08/13 07:29:23;;;;;;;2.90;1.52;;;;;;;;;;4954301;29;20062;-87
2021/08/13 07:31:50;;;;;;;4.15;1.90;;;;;;;;;;4954461;29;20027;-87
2021/08/13 07:34:16;;;;;;;9.32;1.65;;;;;;;;;;4954364;29;20031;-86
2021/08/13 07:36:42;;;;;;;9.32;1.80;;;;;;;;;;4955237;29;20130;-85
2021/08/13 07:39:08;;;;;;;5.45;1.92;;;;;;;;;;4955494;29;20039;-84
2021/08/13 07:41:34;;;;;;;2.92;1.45;;;;;;;;;;4954282;29;20038;-86
2021/08/13 07:44:00;;;;;;;2.85;1.45;;;;;;;;;;4954202;29;20441;-87
2021/08/13 07:46:27;;;;;;;11.25;2.08;;;;;;;;;;4954086;29;20027;-85
2021/08/13 07:48:54;;;;;;;3.53;1.67;;;;;;;;;;4954033;29;20039;-84
2021/08/13 07:51:21;;;;;;;4.93;1.70;;;;;;;;;;4955026;28;20019;-84
2021/08/13 07:53:47;;;;;;;3.88;1.60;;;;;;;;;;4955309;29;20070;-89
2021/08/13 07:56:13;;;;;;;6.20;2.53;;;;;;;;;;4954192;29;20049;-84
2021/08/13 07:58:39;;;;;;;2.42;1.40;;;;;;;;;;4954957;28;20035;-84
2021/08/13 08:01:06;;;;;;;3.50;1.55;;;;;;;;;;4957982;29;20035;-85
2021/08/13 08:03:32;;;;;;;3.60;1.70;;;;;;;;;;4957959;29;20034;-86
2021/08/13 08:05:58;;;;;;;3.30;1.30;;;;;;;;;;4957758;29;20035;-86
2021/08/13 08:08:25;;;;;;;2.40;1.30;;;;;;;;;;4957748;29;20038;-85
2021/08/13 08:10:51;;;;;;;6.82;1.80;;;;;;;;;;4958970;29;20364;-86
2021/08/13 08:13:18;;;;;;;3.05;1.50;;;;;;;;;;4958830;29;20393;-88
2021/08/13 08:15:46;;;;;;;5.78;1.60;;;;;;;;;;4956920;29;20055;-88
2021/08/13 08:18:12;;;;;;;5.18;1.35;;;;;;;;;;4957534;29;20043;-86
2021/08/13 08:20:39;;;;;;;3.55;1.67;;;;;;;;;;4957620;29;20032;-86
2021/08/13 08:23:05;;;;;;;5.13;1.58;;;;;;;;;;4957527;29;20027;-86
2021/08/13 08:25:32;;;;;;;3.15;1.98;;;;;;;;;;4958721;29;20082;-89
2021/08/13 08:27:58;;;;;;;4.05;1.70;;;;;;;;;;4959245;28;20034;-86
2021/08/13 08:30:25;;;;;;;4.80;1.90;;;;;;;;;;4958635;29;20031;-86
2021/08/13 08:32:52;;;;;;;4.78;1.85;;;;;;;;;;4958623;29;20027;-86
2021/08/13 08:35:18;;;;;;;3.53;1.60;;;;;;;;;;4957602;29;20028;-85
2021/08/13 08:37:54;;;;;;;3.45;1.80;;;;;;;;;;4957196;29;20070;-87
2021/08/13 08:40:25;;;;;;;6.03;1.63;;;;;;;;;;4959042;29;20098;-86
2021/08/13 08:42:53;;;;;;;3.17;1.90;;;;;;;;;;4958962;29;20428;-86
2021/08/13 08:45:20;;;;;;;5.03;1.90;;;;;;;;;;4957116;29;20378;-86
2021/08/13 08:47:47;;;;;;;4.95;1.45;;;;;;;;;;4958961;29;20106;-85
2021/08/13 08:50:14;;;;;;;3.95;1.70;;;;;;;;;;4958378;29;20058;-84
2021/08/13 08:52:40;;;;;;;3.22;1.80;;;;;;;;;;4956901;28;20051;-85
2021/08/13 08:55:08;;;;;;;3.50;1.90;;;;;;;;;;4958224;29;20031;-85
2021/08/13 08:57:34;;;;;;;4.45;1.95;;;;;;;;;;4956860;29;20042;-88
2021/08/13 09:00:01;;;;;;;4.53;1.60;;;;;;;;;;4956862;29;20019;-85
2021/08/13 09:02:27;;;;;;;5.00;1.60;;;;;;;;;;4956873;29;20122;-86
2021/08/13 09:04:54;;;;;;;4.93;1.83;;;;;;;;;;4958533;29;20027;-85
2021/08/13 09:07:20;;;;;;;3.30;1.55;;;;;;;;;;4956687;29;20564;-85
2021/08/13 09:09:46;;;;;;;4.90;1.67;;;;;;;;;;4957471;28;20056;-85
2021/08/13 09:12:13;;;;;;;9.73;1.90;;;;;;;;;;4958148;29;20035;-88
2021/08/13 09:14:41;;;;;;;3.10;1.50;;;;;;;;;;4956796;29;20027;-85
2021/08/13 09:17:07;;;;;;;3.35;1.90;;;;;;;;;;4956610;29;20068;-89
2021/08/13 09:19:41;;;;;;;3.05;1.60;;;;;;;;;;4957834;28;20038;-86
2021/08/13 09:22:11;;;;;;;3.28;1.65;;;;;;;;;;4956524;29;20031;-85
2021/08/13 09:24:38;;;;;;;3.05;1.63;;;;;;;;;;4956926;29;20051;-87
2021/08/13 09:27:23;;;;;;;5.00;1.67;;;;;;;;;;4956379;29;20055;-85
2021/08/13 09:30:09;;;;;;;3.55;1.60;;;;;;;;;;4956517;29;20046;-88
2021/08/13 09:32:38;;;;;;;2.63;1.48;;;;;;;;;;4966398;29;20027;-86
2021/08/13 09:35:04;;;;;;;7.78;1.73;;;;;;;;;;4967304;29;20023;-88
2021/08/13 09:37:31;;;;;;;2.50;1.45;;;;;;;;;;4960998;29;20445;-88
2021/08/13 09:39:57;;;;;;;3.17;1.75;;;;;;;;;;4956505;29;20085;-87
2021/08/13 09:42:37;;;;;;;3.25;1.70;;;;;;;;;;4958516;29;20046;-89
2021/08/13 09:45:08;;;;;;;3.28;1.70;;;;;;;;;;4957326;29;20031;-92
2021/08/13 09:47:52;;;;;;;3.95;1.45;;;;;;;;;;4956270;29;20031;-88
2021/08/13 09:50:20;;;;;;;3.47;1.70;;;;;;;;;;4955977;29;20023;-88
2021/08/13 09:53:06;;;;;;;7.35;1.80;;;;;;;;;;4955942;28;20203;-88
2021/08/13 09:55:32;;;;;;;11.70;2.10;;;;;;;;;;4956217;29;20054;-88
2021/08/13 09:57:58;;;;;;;7.85;1.60;;;;;;;;;;4955669;29;20396;-88
2021/08/13 10:00:24;;;;;;;17.48;1.83;;;;;;;;;;4955941;29;20444;-89
2021/08/13 10:02:50;;;;;;;4.95;2.10;;;;;;;;;;4955708;29;20027;-89
2021/08/13 10:05:24;;;;;;;4.55;1.70;;;;;;;;;;4955659;29;20027;-86
2021/08/13 10:07:50;;;;;;;3.65;1.70;;;;;;;;;;4956959;29;20027;-86
2021/08/13 10:10:17;;;;;;;3.97;1.88;;;;;;;;;;4957388;29;20031;-90
2021/08/13 10:12:44;;;;;;;3.03;1.70;;;;;;;;;;4955633;29;20047;-89
2021/08/13 10:15:11;;;;;;;2.58;1.50;;;;;;;;;;4957245;29;20023;-87
2021/08/13 10:17:39;;;;;;;3.22;1.58;;;;;;;;;;4957203;28;20046;-87
2021/08/13 10:20:05;;;;;;;4.90;1.90;;;;;;;;;;4955672;29;20098;-88
2021/08/13 10:22:31;;;;;;;3.88;1.67;;;;;;;;;;4955573;28;20472;-88
2021/08/13 10:24:58;;;;;;;3.72;2.10;;;;;;;;;;4955354;29;20023;-87
2021/08/13 10:27:24;;;;;;;3.13;1.55;;;;;;;;;;4955406;29;20028;-87
2021/08/13 10:29:50;;;;;;;3.35;1.83;;;;;;;;;;4955264;29;20027;-85
2021/08/13 10:32:20;;;;;;;3.38;1.80;;;;;;;;;;4958351;29;20366;-84
2021/08/13 10:34:46;;;;;;;2.40;1.58;;;;;;;;;;4957756;28;20054;-87
2021/08/13 10:37:16;;;;;;;4.05;2.00;;;;;;;;;;4957275;29;20089;-86
2021/08/13 10:39:43;;;;;;;3.28;1.98;;;;;;;;;;4956414;29;20030;-87
2021/08/13 10:42:14;;;;;;;6.93;1.77;;;;;;;;;;4956009;29;20035;-90
2021/08/13 10:44:46;;;;;;;4.10;1.95;;;;;;;;;;4955670;29;20027;-85
2021/08/13 10:47:15;;;;;;;6.70;1.90;;;;;;;;;;4956107;29;20508;-89
2021/08/13 10:49:45;;;;;;;3.60;1.80;;;;;;;;;;4954897;29;20027;-86
2021/08/13 10:52:11;;;;;;;3.22;1.70;;;;;;;;;;4954771;29;20409;-88
2021/08/13 10:54:41;;;;;;;3.63;1.60;;;;;;;;;;4955281;29;20539;-87
2021/08/13 10:57:09;;;;;;;3.58;2.15;;;;;;;;;;4954677;29;20122;-85
2021/08/13 10:59:41;;;;;;;3.90;1.75;;;;;;;;;;4956314;28;20107;-87
2021/08/13 11:02:12;;;;;;;2.30;1.40;;;;;;;;;;4954701;29;20058;-87
2021/08/13 11:04:42;;;;;;;5.13;1.90;;;;;;;;;;4954665;29;20114;-84
2021/08/13 11:07:12;;;;;;;4.82;2.05;;;;;;;;;;4954683;29;20031;-86
2021/08/13 11:09:38;;;;;;;8.60;2.20;;;;;;;;;;4954497;29;20030;-87
2021/08/13 11:12:12;;;;;;;5.13;1.80;;;;;;;;;;4954672;29;20420;-86
2021/08/13 11:14:54;;;;;;;6.15;2.35;;;;;;;;;;4954662;29;20037;-84
2021/08/13 11:17:33;;;;;;;3.25;2.08;;;;;;;;;;4956139;29;20504;-87
2021/08/13 11:20:00;;;;;;;3.25;1.90;;;;;;;;;;4953901;29;20063;-85
2021/08/13 11:22:35;;;;;;;4.07;2.28;;;;;;;;;;4957692;29;20031;-85
2021/08/13 11:25:01;;;;;;;6.38;2.08;;;;;;;;;;4956263;28;20024;-86
2021/08/13 11:27:27;;;;;;;4.28;2.20;;;;;;;;;;4955722;29;20113;-86
2021/08/13 11:29:53;;;;;;;6.07;2.05;;;;;;;;;;4955177;29;20488;-88
2021/08/13 11:32:19;;;;;;;4.05;2.63;;;;;;;;;;4957765;29;20436;-91
2021/08/13 11:34:52;;;;;;;5.00;2.40;;;;;;;;;;4958823;28;20023;-89
2021/08/13 11:37:30;;;;;;;5.90;2.25;;;;;;;;;;4959370;29;20384;-90
2021/08/13 11:39:57;;;;;;;7.32;2.40;;;;;;;;;;4956359;29;20050;-90
2021/08/13 11:42:24;;;;;;;2.83;1.92;;;;;;;;;;4955747;29;20023;-87
2021/08/13 11:44:51;;;;;;;5.28;2.30;;;;;;;;;;4956621;29;20135;-92
2021/08/13 11:47:20;;;;;;;3.60;1.95;;;;;;;;;;4955862;29;20027;-90
2021/08/13 11:49:47;;;;;;;3.17;2.10;;;;;;;;;;4956122;29;20046;-91
2021/08/13 11:52:27;;;;;;;5.18;2.45;;;;;;;;;;4956519;28;20066;-86
2021/08/13 11:54:54;;;;;;;5.70;2.13;;;;;;;;;;4956138;29;20058;-91
2021/08/13 11:57:21;;;;;;;5.10;2.20;;;;;;;;;;4955964;29;20043;-89
2021/08/13 11:59:52;;;;;;;6.85;2.35;;;;;;;;;;4957486;29;20023;-91
2021/08/13 12:02:31;;;;;;;4.70;2.17;;;;;;;;;;4955268;29;20031;-88
2021/08/13 12:05:07;;;;;;;3.80;1.90;;;;;;;;;;4955057;29;20035;-89
2021/08/13 12:07:34;;;;;;;8.43;2.45;;;;;;;;;;4956594;29;20031;-90
2021/08/13 12:10:13;;;;;;;12.35;2.50;;;;;;;;;;4955375;29;20062;-91
2021/08/13 12:12:40;;;;;;;6.72;2.67;;;;;;;;;;4956209;29;20528;-91
2021/08/13 12:15:10;;;;;;;8.45;2.40;;;;;;;;;;4955514;29;20062;-90
2021/08/13 12:17:36;;;;;;;8.75;2.60;;;;;;;;;;4956799;29;20082;-91
2021/08/13 12:20:04;;;;;;;4.28;2.50;;;;;;;;;;4955608;29;20027;-90
2021/08/13 12:22:31;;;;;;;3.83;1.83;;;;;;;;;;4955541;29;20058;-90
2021/08/13 12:24:57;;;;;;;10.23;2.47;;;;;;;;;;4955632;29;20051;-90
2021/08/13 12:27:27;;;;;;;4.88;2.70;;;;;;;;;;4956200;29;20046;-90
2021/08/13 12:29:53;;;;;;;4.65;2.35;;;;;;;;;;4956083;29;20027;-88
2021/08/13 12:32:19;;;;;;;5.20;2.47;;;;;;;;;;4955533;29;20038;-89
2021/08/13 12:34:52;;;;;;;8.75;2.65;;;;;;;;;;4955311;29;20073;-88
2021/08/13 12:37:21;;;;;;;7.68;2.50;;;;;;;;;;4956349;28;20535;-88
2021/08/13 12:39:49;;;;;;;5.30;2.03;;;;;;;;;;4955761;29;20020;-90
2021/08/13 12:42:15;;;;;;;7.15;2.25;;;;;;;;;;4955157;29;20117;-89
2021/08/13 12:44:43;;;;;;;3.40;2.15;;;;;;;;;;4955193;28;20488;-91
2021/08/13 12:47:10;;;;;;;6.15;2.67;;;;;;;;;;4959643;29;20035;-89
2021/08/13 12:49:36;;;;;;;8.23;2.25;;;;;;;;;;4959052;29;20019;-89
2021/08/13 12:52:12;;;;;;;8.43;2.30;;;;;;;;;;4958825;28;20063;-88
2021/08/13 12:54:40;;;;;;;7.13;2.20;;;;;;;;;;4957387;29;20029;-88
2021/08/13 12:57:14;;;;;;;4.75;2.83;;;;;;;;;;4958308;29;20031;-89
2021/08/13 12:59:41;;;;;;;4.30;2.55;;;;;;;;;;4959168;29;20078;-88
2021/08/13 13:02:07;;;;;;;4.10;2.50;;;;;;;;;;4959976;29;20118;-89
2021/08/13 13:04:40;;;;;;;5.30;2.60;;;;;;;;;;4958384;29;20190;-90
2021/08/13 13:07:07;;;;;;;8.32;2.50;;;;;;;;;;4959028;29;20485;-89
2021/08/13 13:09:35;;;;;;;8.85;2.50;;;;;;;;;;4957115;29;20027;-89
2021/08/13 13:12:21;;;;;;;8.02;2.58;;;;;;;;;;4957508;29;20042;-87
2021/08/13 13:14:48;;;;;;;4.90;2.45;;;;;;;;;;4957549;29;20031;-90
2021/08/13 13:17:15;;;;;;;6.53;2.65;;;;;;;;;;4960125;29;20134;-86
2021/08/13 13:19:41;;;;;;;5.50;2.58;;;;;;;;;;4958076;29;20026;-88
2021/08/13 13:22:24;;;;;;;4.45;2.53;;;;;;;;;;4957052;29;20095;-91
2021/08/13 13:25:09;;;;;;;3.50;2.28;;;;;;;;;;4956972;29;20074;-87
2021/08/13 13:27:54;;;;;;;5.45;2.55;;;;;;;;;;4957479;29;20118;-96
2021/08/13 13:30:37;;;;;;;4.05;2.15;;;;;;;;;;4956375;29;20487;-96
2021/08/13 13:33:05;;;;;;;6.30;2.55;;;;;;;;;;4957862;29;20031;-88
2021/08/13 13:35:32;;;;;;;4.70;2.28;;;;;;;;;;4957634;29;20447;-88
2021/08/13 13:37:58;;;;;;;4.20;2.45;;;;;;;;;;4956240;29;20045;-86
2021/08/13 13:40:25;;;;;;;5.30;2.80;;;;;;;;;;4959588;28;20037;-87
2021/08/13 13:42:51;;;;;;;3.95;2.33;;;;;;;;;;4957315;29;20027;-84
2021/08/13 13:45:18;;;;;;;6.07;2.83;;;;;;;;;;4956606;29;20038;-86
2021/08/13 13:47:44;;;;;;;4.95;2.42;;;;;;;;;;4956368;29;20031;-87
2021/08/13 13:50:11;;;;;;;4.18;2.67;;;;;;;;;;4956030;29;20023;-86
2021/08/13 13:52:40;;;;;;;4.28;2.70;;;;;;;;;;4957620;29;20055;-85
2021/08/13 13:55:07;;;;;;;4.78;2.58;;;;;;;;;;4957607;28;20016;-87
2021/08/13 13:57:35;;;;;;;4.88;2.40;;;;;;;;;;4958265;28;20151;-86
2021/08/13 14:00:03;;;;;;;5.15;2.75;;;;;;;;;;4955849;29;20510;-86
2021/08/13 14:02:29;;;;;;;5.03;2.70;;;;;;;;;;4956893;29;20473;-88
2021/08/13 14:04:55;;;;;;;7.85;2.58;;;;;;;;;;4957855;29;20034;-89
2021/08/13 14:07:21;;;;;;;5.15;2.65;;;;;;;;;;4956618;29;20038;-89
2021/08/13 14:09:47;;;;;;;5.93;2.58;;;;;;;;;;4959238;29;20023;-89
2021/08/13 14:12:13;;;;;;;5.32;2.33;;;;;;;;;;4957079;29;20043;-89
2021/08/13 14:14:39;;;;;;;9.18;2.33;;;;;;;;;;4954964;29;20019;-88
2021/08/13 14:17:06;;;;;;;5.15;2.53;;;;;;;;;;4955472;29;20119;-89
2021/08/13 14:19:32;;;;;;;5.68;2.83;;;;;;;;;;4955274;29;20031;-89
2021/08/13 14:21:59;;;;;;;7.05;2.60;;;;;;;;;;4955078;29;20038;-88
2021/08/13 14:24:25;;;;;;;5.18;2.35;;;;;;;;;;4955346;29;20122;-83
2021/08/13 14:26:52;;;;;;;8.82;2.70;;;;;;;;;;4956486;29;20023;-86
2021/08/13 14:29:18;;;;;;;6.78;2.90;;;;;;;;;;4955234;29;20037;-86
2021/08/13 14:31:44;;;;;;;10.23;2.67;;;;;;;;;;4956397;29;20090;-83
2021/08/13 14:34:10;;;;;;;10.45;2.72;;;;;;;;;;4955143;29;20058;-85
2021/08/13 14:36:36;;;;;;;5.97;2.55;;;;;;;;;;4955120;29;20023;-87
2021/08/13 14:39:02;;;;;;;4.30;2.65;;;;;;;;;;4956374;29;20409;-86
2021/08/13 14:41:29;;;;;;;7.35;2.80;;;;;;;;;;4955087;29;20495;-83
2021/08/13 14:43:55;;;;;;;5.60;2.47;;;;;;;;;;4956753;29;20416;-86
2021/08/13 14:46:21;;;;;;;3.67;2.33;;;;;;;;;;4956331;29;20358;-86
2021/08/13 14:48:47;;;;;;;5.57;2.75;;;;;;;;;;4954995;29;20121;-87